sensor_id;sensor_type;location;lat;lon;timestamp;temperature;humidity
75985;DHT22;65033;44.660;37.758;2023-08-08T00:00:20;26.35;58.11
75985;DHT22;65033;44.660;37.758;2023-08-08T00:01:24;26.37;57.74
75985;DHT22;65033;44.660;37.758;2023-08-08T00:02:28;26.40;58.11
75985;DHT22;65033;44.660;37.758;2023-08-08T00:03:32;26.43;58.00
75985;DHT22;65033;44.660;37.758;2023-08-08T00:04:35;26.42;59.15
75985;DHT22;65033;44.660;37.758;2023-08-08T00:05:39;26.39;57.84
75985;DHT22;65033;44.660;37.758;2023-08-08T00:06:43;26.38;59.19
75985;DHT22;65033;44.660;37.758;2023-08-08T00:07:47;26.35;59.06
75985;DHT22;65033;44.660;37.758;2023-08-08T00:08:50;26.34;58.93
75985;DHT22;65033;44.660;37.758;2023-08-08T00:09:53;26.32;59.29
75985;DHT22;65033;44.660;37.758;2023-08-08T00:10:57;26.26;58.87
75985;DHT22;65033;44.660;37.758;2023-08-08T00:12:00;26.24;58.43
75985;DHT22;65033;44.660;37.758;2023-08-08T00:13:04;26.23;58.71
75985;DHT22;65033;44.660;37.758;2023-08-08T00:14:07;26.21;58.70
75985;DHT22;65033;44.660;37.758;2023-08-08T00:15:12;26.17;58.71
75985;DHT22;65033;44.660;37.758;2023-08-08T00:16:15;26.18;58.21
75985;DHT22;65033;44.660;37.758;2023-08-08T00:17:19;26.16;58.09
75985;DHT22;65033;44.660;37.758;2023-08-08T00:18:22;26.18;57.77
75985;DHT22;65033;44.660;37.758;2023-08-08T00:19:26;26.18;57.74
75985;DHT22;65033;44.660;37.758;2023-08-08T00:20:29;26.19;57.45
75985;DHT22;65033;44.660;37.758;2023-08-08T00:21:33;26.19;56.87
75985;DHT22;65033;44.660;37.758;2023-08-08T00:22:36;26.19;56.69
75985;DHT22;65033;44.660;37.758;2023-08-08T00:23:40;26.18;56.82
75985;DHT22;65033;44.660;37.758;2023-08-08T00:24:43;26.19;56.92
75985;DHT22;65033;44.660;37.758;2023-08-08T00:25:46;26.18;56.49
75985;DHT22;65033;44.660;37.758;2023-08-08T00:26:52;26.20;56.13
75985;DHT22;65033;44.660;37.758;2023-08-08T00:27:56;26.23;56.02
75985;DHT22;65033;44.660;37.758;2023-08-08T00:28:59;26.25;55.79
75985;DHT22;65033;44.660;37.758;2023-08-08T00:30:03;26.24;55.93
75985;DHT22;65033;44.660;37.758;2023-08-08T00:31:08;26.27;56.04
75985;DHT22;65033;44.660;37.758;2023-08-08T00:32:13;26.28;56.18
75985;DHT22;65033;44.660;37.758;2023-08-08T00:33:17;26.32;56.39
75985;DHT22;65033;44.660;37.758;2023-08-08T00:34:21;26.32;56.58
75985;DHT22;65033;44.660;37.758;2023-08-08T00:35:24;26.34;54.36
75985;DHT22;65033;44.660;37.758;2023-08-08T00:36:27;26.35;54.13
75985;DHT22;65033;44.660;37.758;2023-08-08T00:37:31;26.37;53.71
75985;DHT22;65033;44.660;37.758;2023-08-08T00:38:34;26.37;53.56
75985;DHT22;65033;44.660;37.758;2023-08-08T00:39:38;26.37;53.71
75985;DHT22;65033;44.660;37.758;2023-08-08T00:40:42;26.36;53.52
75985;DHT22;65033;44.660;37.758;2023-08-08T00:41:45;26.35;53.59
75985;DHT22;65033;44.660;37.758;2023-08-08T00:42:51;26.34;53.70
75985;DHT22;65033;44.660;37.758;2023-08-08T00:43:54;26.32;53.49
75985;DHT22;65033;44.660;37.758;2023-08-08T00:44:58;26.31;53.68
75985;DHT22;65033;44.660;37.758;2023-08-08T00:46:07;26.30;53.82
75985;DHT22;65033;44.660;37.758;2023-08-08T00:47:11;26.25;53.23
75985;DHT22;65033;44.660;37.758;2023-08-08T00:48:15;26.26;53.94
75985;DHT22;65033;44.660;37.758;2023-08-08T00:49:18;26.24;53.05
75985;DHT22;65033;44.660;37.758;2023-08-08T00:50:23;26.25;54.20
75985;DHT22;65033;44.660;37.758;2023-08-08T00:51:26;26.25;53.87
75985;DHT22;65033;44.660;37.758;2023-08-08T00:52:30;26.25;52.86
75985;DHT22;65033;44.660;37.758;2023-08-08T00:53:34;26.26;53.06
75985;DHT22;65033;44.660;37.758;2023-08-08T00:54:37;26.26;52.88
75985;DHT22;65033;44.660;37.758;2023-08-08T00:55:41;26.26;52.87
75985;DHT22;65033;44.660;37.758;2023-08-08T00:56:47;26.25;53.20
75985;DHT22;65033;44.660;37.758;2023-08-08T00:57:51;26.27;52.73
75985;DHT22;65033;44.660;37.758;2023-08-08T00:58:54;26.26;53.05
75985;DHT22;65033;44.660;37.758;2023-08-08T00:59:57;26.24;53.04
75985;DHT22;65033;44.660;37.758;2023-08-08T01:01:02;26.23;53.07
75985;DHT22;65033;44.660;37.758;2023-08-08T01:02:08;26.21;53.23
75985;DHT22;65033;44.660;37.758;2023-08-08T01:03:11;26.22;53.21
75985;DHT22;65033;44.660;37.758;2023-08-08T01:04:19;26.21;53.18
75985;DHT22;65033;44.660;37.758;2023-08-08T01:05:22;26.21;53.42
75985;DHT22;65033;44.660;37.758;2023-08-08T01:06:31;26.22;53.09
75985;DHT22;65033;44.660;37.758;2023-08-08T01:07:41;26.21;52.92
75985;DHT22;65033;44.660;37.758;2023-08-08T01:08:51;26.21;53.33
75985;DHT22;65033;44.660;37.758;2023-08-08T01:10:02;26.19;53.48
75985;DHT22;65033;44.660;37.758;2023-08-08T01:11:10;26.18;53.68
75985;DHT22;65033;44.660;37.758;2023-08-08T01:12:14;26.16;53.68
75985;DHT22;65033;44.660;37.758;2023-08-08T01:13:21;26.13;53.52
75985;DHT22;65033;44.660;37.758;2023-08-08T01:14:27;26.11;53.97
75985;DHT22;65033;44.660;37.758;2023-08-08T01:15:33;26.09;53.87
75985;DHT22;65033;44.660;37.758;2023-08-08T01:16:39;26.07;53.92
75985;DHT22;65033;44.660;37.758;2023-08-08T01:17:46;26.07;54.15
75985;DHT22;65033;44.660;37.758;2023-08-08T01:18:50;26.07;54.10
75985;DHT22;65033;44.660;37.758;2023-08-08T01:19:53;26.07;54.01
75985;DHT22;65033;44.660;37.758;2023-08-08T01:20:58;26.07;54.08
75985;DHT22;65033;44.660;37.758;2023-08-08T01:22:05;26.07;54.18
75985;DHT22;65033;44.660;37.758;2023-08-08T01:23:12;26.04;54.16
75985;DHT22;65033;44.660;37.758;2023-08-08T01:24:20;26.04;54.49
75985;DHT22;65033;44.660;37.758;2023-08-08T01:25:24;26.06;54.23
75985;DHT22;65033;44.660;37.758;2023-08-08T01:26:29;26.05;54.23
75985;DHT22;65033;44.660;37.758;2023-08-08T01:27:35;26.04;54.08
75985;DHT22;65033;44.660;37.758;2023-08-08T01:28:44;26.02;54.08
75985;DHT22;65033;44.660;37.758;2023-08-08T01:29:47;26.01;54.07
75985;DHT22;65033;44.660;37.758;2023-08-08T01:30:51;26.01;54.09
75985;DHT22;65033;44.660;37.758;2023-08-08T01:31:55;25.98;54.05
75985;DHT22;65033;44.660;37.758;2023-08-08T01:32:59;25.94;54.35
75985;DHT22;65033;44.660;37.758;2023-08-08T01:34:03;25.93;54.21
75985;DHT22;65033;44.660;37.758;2023-08-08T01:35:07;25.93;54.37
75985;DHT22;65033;44.660;37.758;2023-08-08T01:36:15;25.89;54.31
75985;DHT22;65033;44.660;37.758;2023-08-08T01:37:27;25.90;54.38
75985;DHT22;65033;44.660;37.758;2023-08-08T01:38:38;25.87;54.75
75985;DHT22;65033;44.660;37.758;2023-08-08T01:39:46;25.86;54.54
75985;DHT22;65033;44.660;37.758;2023-08-08T01:40:49;25.84;54.60
75985;DHT22;65033;44.660;37.758;2023-08-08T01:41:54;25.82;54.54
75985;DHT22;65033;44.660;37.758;2023-08-08T01:42:58;25.82;54.94
75985;DHT22;65033;44.660;37.758;2023-08-08T01:44:02;25.82;54.80
75985;DHT22;65033;44.660;37.758;2023-08-08T01:45:06;25.80;54.69
75985;DHT22;65033;44.660;37.758;2023-08-08T01:46:11;25.79;55.06
75985;DHT22;65033;44.660;37.758;2023-08-08T01:47:15;25.78;54.94
75985;DHT22;65033;44.660;37.758;2023-08-08T01:48:18;25.77;55.00
75985;DHT22;65033;44.660;37.758;2023-08-08T01:49:24;25.78;55.06
75985;DHT22;65033;44.660;37.758;2023-08-08T01:50:28;25.79;54.97
75985;DHT22;65033;44.660;37.758;2023-08-08T01:51:31;25.81;54.86
75985;DHT22;65033;44.660;37.758;2023-08-08T01:52:35;25.84;54.84
75985;DHT22;65033;44.660;37.758;2023-08-08T01:53:38;25.87;54.76
75985;DHT22;65033;44.660;37.758;2023-08-08T01:54:45;25.87;54.82
75985;DHT22;65033;44.660;37.758;2023-08-08T01:55:48;25.90;54.89
75985;DHT22;65033;44.660;37.758;2023-08-08T01:56:52;25.91;55.19
75985;DHT22;65033;44.660;37.758;2023-08-08T01:57:55;25.91;55.25
75985;DHT22;65033;44.660;37.758;2023-08-08T01:58:59;25.90;55.55
75985;DHT22;65033;44.660;37.758;2023-08-08T02:00:04;25.90;55.58
75985;DHT22;65033;44.660;37.758;2023-08-08T02:01:17;25.91;55.55
75985;DHT22;65033;44.660;37.758;2023-08-08T02:02:21;25.90;55.55
75985;DHT22;65033;44.660;37.758;2023-08-08T02:03:25;25.89;55.63
75985;DHT22;65033;44.660;37.758;2023-08-08T02:04:29;25.89;55.74
75985;DHT22;65033;44.660;37.758;2023-08-08T02:05:32;25.86;56.00
75985;DHT22;65033;44.660;37.758;2023-08-08T02:06:36;25.82;56.02
75985;DHT22;65033;44.660;37.758;2023-08-08T02:07:39;25.83;56.10
75985;DHT22;65033;44.660;37.758;2023-08-08T02:08:43;25.83;56.25
75985;DHT22;65033;44.660;37.758;2023-08-08T02:09:48;25.82;56.48
75985;DHT22;65033;44.660;37.758;2023-08-08T02:10:53;25.83;56.62
75985;DHT22;65033;44.660;37.758;2023-08-08T02:11:57;25.81;56.81
75985;DHT22;65033;44.660;37.758;2023-08-08T02:13:00;25.80;57.06
75985;DHT22;65033;44.660;37.758;2023-08-08T02:14:04;25.78;57.08
75985;DHT22;65033;44.660;37.758;2023-08-08T02:15:08;25.79;57.27
75985;DHT22;65033;44.660;37.758;2023-08-08T02:16:11;25.78;57.42
75985;DHT22;65033;44.660;37.758;2023-08-08T02:17:14;25.77;57.50
75985;DHT22;65033;44.660;37.758;2023-08-08T02:18:18;25.77;57.85
75985;DHT22;65033;44.660;37.758;2023-08-08T02:19:21;25.78;57.61
75985;DHT22;65033;44.660;37.758;2023-08-08T02:20:25;25.77;57.74
75985;DHT22;65033;44.660;37.758;2023-08-08T02:21:28;25.74;57.80
75985;DHT22;65033;44.660;37.758;2023-08-08T02:22:32;25.72;57.95
75985;DHT22;65033;44.660;37.758;2023-08-08T02:23:35;25.69;57.91
75985;DHT22;65033;44.660;37.758;2023-08-08T02:24:40;25.69;58.00
75985;DHT22;65033;44.660;37.758;2023-08-08T02:25:45;25.67;58.13
75985;DHT22;65033;44.660;37.758;2023-08-08T02:26:48;25.68;58.28
75985;DHT22;65033;44.660;37.758;2023-08-08T02:27:52;25.69;58.28
75985;DHT22;65033;44.660;37.758;2023-08-08T02:28:55;25.71;58.45
75985;DHT22;65033;44.660;37.758;2023-08-08T02:29:59;25.71;58.29
75985;DHT22;65033;44.660;37.758;2023-08-08T02:31:02;25.72;58.35
75985;DHT22;65033;44.660;37.758;2023-08-08T02:32:08;25.72;58.45
75985;DHT22;65033;44.660;37.758;2023-08-08T02:33:11;25.71;58.57
75985;DHT22;65033;44.660;37.758;2023-08-08T02:34:15;25.71;58.71
75985;DHT22;65033;44.660;37.758;2023-08-08T02:35:18;25.69;58.68
75985;DHT22;65033;44.660;37.758;2023-08-08T02:36:22;25.69;58.76
75985;DHT22;65033;44.660;37.758;2023-08-08T02:37:25;25.68;58.83
75985;DHT22;65033;44.660;37.758;2023-08-08T02:38:28;25.68;59.05
75985;DHT22;65033;44.660;37.758;2023-08-08T02:39:32;25.68;59.00
75985;DHT22;65033;44.660;37.758;2023-08-08T02:40:35;25.69;59.07
75985;DHT22;65033;44.660;37.758;2023-08-08T02:41:40;25.69;59.14
75985;DHT22;65033;44.660;37.758;2023-08-08T02:42:44;25.68;59.22
75985;DHT22;65033;44.660;37.758;2023-08-08T02:43:48;25.69;59.22
75985;DHT22;65033;44.660;37.758;2023-08-08T02:44:51;25.69;59.24
75985;DHT22;65033;44.660;37.758;2023-08-08T02:45:55;25.72;59.19
75985;DHT22;65033;44.660;37.758;2023-08-08T02:46:58;25.73;59.21
75985;DHT22;65033;44.660;37.758;2023-08-08T02:48:02;25.74;59.35
75985;DHT22;65033;44.660;37.758;2023-08-08T02:49:06;25.75;59.37
75985;DHT22;65033;44.660;37.758;2023-08-08T02:50:12;25.74;59.38
75985;DHT22;65033;44.660;37.758;2023-08-08T02:51:15;25.75;59.55
75985;DHT22;65033;44.660;37.758;2023-08-08T02:52:19;25.77;59.43
75985;DHT22;65033;44.660;37.758;2023-08-08T02:53:22;25.78;59.54
75985;DHT22;65033;44.660;37.758;2023-08-08T02:54:26;25.81;59.54
75985;DHT22;65033;44.660;37.758;2023-08-08T02:55:30;25.82;59.46
75985;DHT22;65033;44.660;37.758;2023-08-08T02:56:33;25.87;59.38
75985;DHT22;65033;44.660;37.758;2023-08-08T02:57:39;25.89;59.47
75985;DHT22;65033;44.660;37.758;2023-08-08T02:58:46;25.90;59.34
75985;DHT22;65033;44.660;37.758;2023-08-08T02:59:49;25.91;59.41
75985;DHT22;65033;44.660;37.758;2023-08-08T03:00:53;25.92;59.36
75985;DHT22;65033;44.660;37.758;2023-08-08T03:01:58;25.92;59.37
75985;DHT22;65033;44.660;37.758;2023-08-08T03:03:02;25.92;59.46
75985;DHT22;65033;44.660;37.758;2023-08-08T03:04:07;25.92;59.49
75985;DHT22;65033;44.660;37.758;2023-08-08T03:05:11;25.95;59.69
75985;DHT22;65033;44.660;37.758;2023-08-08T03:06:15;25.96;59.58
75985;DHT22;65033;44.660;37.758;2023-08-08T03:07:19;25.99;59.54
75985;DHT22;65033;44.660;37.758;2023-08-08T03:08:23;26.02;59.56
75985;DHT22;65033;44.660;37.758;2023-08-08T03:09:26;26.02;59.64
75985;DHT22;65033;44.660;37.758;2023-08-08T03:10:30;26.06;59.54
75985;DHT22;65033;44.660;37.758;2023-08-08T03:11:33;26.08;59.54
75985;DHT22;65033;44.660;37.758;2023-08-08T03:12:38;26.11;59.48
75985;DHT22;65033;44.660;37.758;2023-08-08T03:13:42;26.13;59.41
75985;DHT22;65033;44.660;37.758;2023-08-08T03:14:46;26.15;59.35
75985;DHT22;65033;44.660;37.758;2023-08-08T03:15:50;26.16;59.32
75985;DHT22;65033;44.660;37.758;2023-08-08T03:16:53;26.19;59.44
75985;DHT22;65033;44.660;37.758;2023-08-08T03:17:57;26.21;59.28
75985;DHT22;65033;44.660;37.758;2023-08-08T03:19:01;26.25;59.28
75985;DHT22;65033;44.660;37.758;2023-08-08T03:20:05;26.27;59.19
75985;DHT22;65033;44.660;37.758;2023-08-08T03:21:10;26.31;59.11
75985;DHT22;65033;44.660;37.758;2023-08-08T03:22:13;26.35;59.09
75985;DHT22;65033;44.660;37.758;2023-08-08T03:23:17;26.41;58.99
75985;DHT22;65033;44.660;37.758;2023-08-08T03:24:20;26.43;58.82
75985;DHT22;65033;44.660;37.758;2023-08-08T03:25:25;26.48;58.80
75985;DHT22;65033;44.660;37.758;2023-08-08T03:26:29;26.48;58.86
75985;DHT22;65033;44.660;37.758;2023-08-08T03:27:32;26.52;58.73
75985;DHT22;65033;44.660;37.758;2023-08-08T03:28:38;26.56;58.64
75985;DHT22;65033;44.660;37.758;2023-08-08T03:29:41;26.58;58.61
75985;DHT22;65033;44.660;37.758;2023-08-08T03:30:45;26.63;58.45
75985;DHT22;65033;44.660;37.758;2023-08-08T03:31:49;26.66;58.35
75985;DHT22;65033;44.660;37.758;2023-08-08T03:32:52;26.69;58.26
75985;DHT22;65033;44.660;37.758;2023-08-08T03:33:56;26.71;58.29
75985;DHT22;65033;44.660;37.758;2023-08-08T03:35:00;26.75;58.25
75985;DHT22;65033;44.660;37.758;2023-08-08T03:36:04;26.77;58.16
75985;DHT22;65033;44.660;37.758;2023-08-08T03:37:08;26.80;58.13
75985;DHT22;65033;44.660;37.758;2023-08-08T03:38:11;26.84;58.03
75985;DHT22;65033;44.660;37.758;2023-08-08T03:39:15;26.90;58.01
75985;DHT22;65033;44.660;37.758;2023-08-08T03:40:19;26.94;57.81
75985;DHT22;65033;44.660;37.758;2023-08-08T03:41:22;26.96;57.93
75985;DHT22;65033;44.660;37.758;2023-08-08T03:42:26;27.00;57.71
75985;DHT22;65033;44.660;37.758;2023-08-08T03:43:29;27.05;57.58
75985;DHT22;65033;44.660;37.758;2023-08-08T03:44:34;27.10;57.45
75985;DHT22;65033;44.660;37.758;2023-08-08T03:45:39;27.16;57.38
75985;DHT22;65033;44.660;37.758;2023-08-08T03:46:45;27.20;57.20
75985;DHT22;65033;44.660;37.758;2023-08-08T03:47:49;27.24;57.06
75985;DHT22;65033;44.660;37.758;2023-08-08T03:48:52;27.28;57.12
75985;DHT22;65033;44.660;37.758;2023-08-08T03:49:56;27.31;56.89
75985;DHT22;65033;44.660;37.758;2023-08-08T03:51:03;27.39;56.96
75985;DHT22;65033;44.660;37.758;2023-08-08T03:52:06;27.41;55.29
75985;DHT22;65033;44.660;37.758;2023-08-08T03:53:10;27.46;56.68
75985;DHT22;65033;44.660;37.758;2023-08-08T03:54:13;27.50;56.66
75985;DHT22;65033;44.660;37.758;2023-08-08T03:55:17;27.55;56.82
75985;DHT22;65033;44.660;37.758;2023-08-08T03:56:21;27.58;56.67
75985;DHT22;65033;44.660;37.758;2023-08-08T03:57:24;27.61;56.36
75985;DHT22;65033;44.660;37.758;2023-08-08T03:58:28;27.69;56.18
75985;DHT22;65033;44.660;37.758;2023-08-08T03:59:31;27.72;56.19
75985;DHT22;65033;44.660;37.758;2023-08-08T04:00:37;27.76;55.97
75985;DHT22;65033;44.660;37.758;2023-08-08T04:01:43;27.82;55.95
75985;DHT22;65033;44.660;37.758;2023-08-08T04:02:49;27.87;55.74
75985;DHT22;65033;44.660;37.758;2023-08-08T04:03:53;27.93;55.74
75985;DHT22;65033;44.660;37.758;2023-08-08T04:04:57;27.99;55.60
75985;DHT22;65033;44.660;37.758;2023-08-08T04:06:01;28.03;55.50
75985;DHT22;65033;44.660;37.758;2023-08-08T04:07:04;28.08;55.22
75985;DHT22;65033;44.660;37.758;2023-08-08T04:08:11;28.14;55.09
75985;DHT22;65033;44.660;37.758;2023-08-08T04:09:16;28.19;55.10
75985;DHT22;65033;44.660;37.758;2023-08-08T04:10:19;28.23;55.03
75985;DHT22;65033;44.660;37.758;2023-08-08T04:11:23;28.27;54.90
75985;DHT22;65033;44.660;37.758;2023-08-08T04:12:26;28.32;54.78
75985;DHT22;65033;44.660;37.758;2023-08-08T04:13:30;28.38;54.55
75985;DHT22;65033;44.660;37.758;2023-08-08T04:14:33;28.41;54.59
75985;DHT22;65033;44.660;37.758;2023-08-08T04:15:38;28.45;54.58
75985;DHT22;65033;44.660;37.758;2023-08-08T04:16:42;28.50;54.42
75985;DHT22;65033;44.660;37.758;2023-08-08T04:17:45;28.55;54.27
75985;DHT22;65033;44.660;37.758;2023-08-08T04:18:49;28.59;54.23
75985;DHT22;65033;44.660;37.758;2023-08-08T04:19:52;28.64;54.17
75985;DHT22;65033;44.660;37.758;2023-08-08T04:20:58;28.69;53.88
75985;DHT22;65033;44.660;37.758;2023-08-08T04:22:02;28.74;53.89
75985;DHT22;65033;44.660;37.758;2023-08-08T04:23:06;28.76;53.87
75985;DHT22;65033;44.660;37.758;2023-08-08T04:24:09;28.82;53.84
75985;DHT22;65033;44.660;37.758;2023-08-08T04:25:13;28.84;53.72
75985;DHT22;65033;44.660;37.758;2023-08-08T04:26:17;28.89;53.56
75985;DHT22;65033;44.660;37.758;2023-08-08T04:27:20;28.92;53.57
75985;DHT22;65033;44.660;37.758;2023-08-08T04:28:23;28.97;53.56
75985;DHT22;65033;44.660;37.758;2023-08-08T04:29:27;29.04;53.41
75985;DHT22;65033;44.660;37.758;2023-08-08T04:30:31;29.09;53.32
75985;DHT22;65033;44.660;37.758;2023-08-08T04:31:36;29.12;53.09
75985;DHT22;65033;44.660;37.758;2023-08-08T04:32:41;29.17;53.10
75985;DHT22;65033;44.660;37.758;2023-08-08T04:33:45;29.21;52.88
75985;DHT22;65033;44.660;37.758;2023-08-08T04:34:51;29.26;53.05
75985;DHT22;65033;44.660;37.758;2023-08-08T04:35:55;29.30;53.01
75985;DHT22;65033;44.660;37.758;2023-08-08T04:36:58;29.31;52.54
75985;DHT22;65033;44.660;37.758;2023-08-08T04:38:02;29.34;53.04
75985;DHT22;65033;44.660;37.758;2023-08-08T04:39:05;29.38;53.11
75985;DHT22;65033;44.660;37.758;2023-08-08T04:40:09;29.42;53.01
75985;DHT22;65033;44.660;37.758;2023-08-08T04:41:13;29.44;52.96
75985;DHT22;65033;44.660;37.758;2023-08-08T04:42:16;29.46;52.85
75985;DHT22;65033;44.660;37.758;2023-08-08T04:43:19;29.45;52.73
75985;DHT22;65033;44.660;37.758;2023-08-08T04:44:23;29.45;52.91
75985;DHT22;65033;44.660;37.758;2023-08-08T04:45:26;29.49;52.91
75985;DHT22;65033;44.660;37.758;2023-08-08T04:46:32;29.57;52.61
75985;DHT22;65033;44.660;37.758;2023-08-08T04:47:37;29.63;52.53
75985;DHT22;65033;44.660;37.758;2023-08-08T04:48:40;29.71;52.34
75985;DHT22;65033;44.660;37.758;2023-08-08T04:49:44;29.77;52.13
75985;DHT22;65033;44.660;37.758;2023-08-08T04:50:47;29.85;52.05
75985;DHT22;65033;44.660;37.758;2023-08-08T04:51:50;29.94;51.82
75985;DHT22;65033;44.660;37.758;2023-08-08T04:52:54;30.03;51.58
75985;DHT22;65033;44.660;37.758;2023-08-08T04:53:58;30.13;51.65
75985;DHT22;65033;44.660;37.758;2023-08-08T04:55:02;30.23;51.43
75985;DHT22;65033;44.660;37.758;2023-08-08T04:56:06;30.35;50.97
75985;DHT22;65033;44.660;37.758;2023-08-08T04:57:09;30.39;51.05
75985;DHT22;65033;44.660;37.758;2023-08-08T04:58:12;30.45;50.54
75985;DHT22;65033;44.660;37.758;2023-08-08T04:59:16;30.49;50.03
75985;DHT22;65033;44.660;37.758;2023-08-08T05:00:20;30.55;50.02
75985;DHT22;65033;44.660;37.758;2023-08-08T05:01:25;30.64;49.95
75985;DHT22;65033;44.660;37.758;2023-08-08T05:02:28;30.70;49.73
75985;DHT22;65033;44.660;37.758;2023-08-08T05:03:33;30.80;49.34
75985;DHT22;65033;44.660;37.758;2023-08-08T05:04:37;30.84;49.41
75985;DHT22;65033;44.660;37.758;2023-08-08T05:05:40;30.87;49.06
75985;DHT22;65033;44.660;37.758;2023-08-08T05:06:44;30.93;49.05
75985;DHT22;65033;44.660;37.758;2023-08-08T05:07:48;31.00;49.05
75985;DHT22;65033;44.660;37.758;2023-08-08T05:08:53;31.07;48.76
75985;DHT22;65033;44.660;37.758;2023-08-08T05:10:01;31.08;48.31
75985;DHT22;65033;44.660;37.758;2023-08-08T05:11:07;31.12;48.13
75985;DHT22;65033;44.660;37.758;2023-08-08T05:12:11;31.16;48.14
75985;DHT22;65033;44.660;37.758;2023-08-08T05:13:14;31.23;48.23
75985;DHT22;65033;44.660;37.758;2023-08-08T05:14:18;31.28;48.13
75985;DHT22;65033;44.660;37.758;2023-08-08T05:15:22;31.30;47.77
75985;DHT22;65033;44.660;37.758;2023-08-08T05:16:25;31.33;47.86
75985;DHT22;65033;44.660;37.758;2023-08-08T05:17:29;31.39;47.89
75985;DHT22;65033;44.660;37.758;2023-08-08T05:18:35;31.42;47.44
75985;DHT22;65033;44.660;37.758;2023-08-08T05:19:39;31.50;47.43
75985;DHT22;65033;44.660;37.758;2023-08-08T05:20:45;31.55;47.39
75985;DHT22;65033;44.660;37.758;2023-08-08T05:21:48;31.61;47.31
75985;DHT22;65033;44.660;37.758;2023-08-08T05:22:53;31.65;47.00
75985;DHT22;65033;44.660;37.758;2023-08-08T05:23:57;31.58;36.78
75985;DHT22;65033;44.660;37.758;2023-08-08T05:25:01;31.54;45.18
75985;DHT22;65033;44.660;37.758;2023-08-08T05:26:05;31.63;46.06
75985;DHT22;65033;44.660;37.758;2023-08-08T05:27:09;31.68;46.60
75985;DHT22;65033;44.660;37.758;2023-08-08T05:28:12;31.72;46.81
75985;DHT22;65033;44.660;37.758;2023-08-08T05:29:16;31.80;46.59
75985;DHT22;65033;44.660;37.758;2023-08-08T05:30:20;31.84;46.64
75985;DHT22;65033;44.660;37.758;2023-08-08T05:31:23;31.89;46.51
75985;DHT22;65033;44.660;37.758;2023-08-08T05:32:27;31.93;46.92
75985;DHT22;65033;44.660;37.758;2023-08-08T05:33:30;31.94;46.28
75985;DHT22;65033;44.660;37.758;2023-08-08T05:34:36;31.98;46.23
75985;DHT22;65033;44.660;37.758;2023-08-08T05:35:40;32.04;46.15
75985;DHT22;65033;44.660;37.758;2023-08-08T05:37:01;32.10;45.52
75985;DHT22;65033;44.660;37.758;2023-08-08T05:38:19;32.17;45.54
75985;DHT22;65033;44.660;37.758;2023-08-08T05:39:30;32.24;45.15
75985;DHT22;65033;44.660;37.758;2023-08-08T05:40:43;32.31;44.96
75985;DHT22;65033;44.660;37.758;2023-08-08T05:41:51;32.39;45.09
75985;DHT22;65033;44.660;37.758;2023-08-08T05:42:57;32.46;44.81
75985;DHT22;65033;44.660;37.758;2023-08-08T05:44:04;32.52;44.63
75985;DHT22;65033;44.660;37.758;2023-08-08T05:45:10;32.57;44.48
75985;DHT22;65033;44.660;37.758;2023-08-08T05:46:18;32.59;35.72
75985;DHT22;65033;44.660;37.758;2023-08-08T05:47:23;32.58;44.42
75985;DHT22;65033;44.660;37.758;2023-08-08T05:48:28;32.61;44.03
75985;DHT22;65033;44.660;37.758;2023-08-08T05:49:36;32.67;43.74
75985;DHT22;65033;44.660;37.758;2023-08-08T05:50:40;32.71;43.44
75985;DHT22;65033;44.660;37.758;2023-08-08T05:51:45;32.74;43.64
75985;DHT22;65033;44.660;37.758;2023-08-08T05:52:50;32.79;43.68
75985;DHT22;65033;44.660;37.758;2023-08-08T05:53:55;32.86;43.47
75985;DHT22;65033;44.660;37.758;2023-08-08T05:55:01;32.91;43.30
75985;DHT22;65033;44.660;37.758;2023-08-08T05:56:07;32.91;43.33
75985;DHT22;65033;44.660;37.758;2023-08-08T05:57:14;32.94;43.48
75985;DHT22;65033;44.660;37.758;2023-08-08T05:58:25;32.99;43.34
75985;DHT22;65033;44.660;37.758;2023-08-08T05:59:37;33.05;43.13
75985;DHT22;65033;44.660;37.758;2023-08-08T06:00:43;33.03;42.77
75985;DHT22;65033;44.660;37.758;2023-08-08T06:01:47;33.01;42.96
75985;DHT22;65033;44.660;37.758;2023-08-08T06:03:00;33.07;42.90
75985;DHT22;65033;44.660;37.758;2023-08-08T06:04:10;33.11;42.93
75985;DHT22;65033;44.660;37.758;2023-08-08T06:05:20;33.14;43.09
75985;DHT22;65033;44.660;37.758;2023-08-08T06:06:25;33.13;43.55
75985;DHT22;65033;44.660;37.758;2023-08-08T06:07:29;33.14;43.35
75985;DHT22;65033;44.660;37.758;2023-08-08T06:08:38;33.20;43.20
75985;DHT22;65033;44.660;37.758;2023-08-08T06:09:47;33.26;42.29
75985;DHT22;65033;44.660;37.758;2023-08-08T06:10:57;33.25;42.58
75985;DHT22;65033;44.660;37.758;2023-08-08T06:12:09;33.28;42.63
75985;DHT22;65033;44.660;37.758;2023-08-08T06:13:18;33.30;42.97
75985;DHT22;65033;44.660;37.758;2023-08-08T06:14:25;33.35;43.05
75985;DHT22;65033;44.660;37.758;2023-08-08T06:15:31;33.42;43.19
75985;DHT22;65033;44.660;37.758;2023-08-08T06:16:37;33.48;43.05
75985;DHT22;65033;44.660;37.758;2023-08-08T06:17:51;33.47;42.57
75985;DHT22;65033;44.660;37.758;2023-08-08T06:18:59;33.52;42.55
75985;DHT22;65033;44.660;37.758;2023-08-08T06:20:09;33.56;42.12
75985;DHT22;65033;44.660;37.758;2023-08-08T06:21:24;33.52;41.80
75985;DHT22;65033;44.660;37.758;2023-08-08T06:22:27;33.41;42.57
75985;DHT22;65033;44.660;37.758;2023-08-08T06:23:31;33.35;42.71
75985;DHT22;65033;44.660;37.758;2023-08-08T06:24:39;33.40;42.80
75985;DHT22;65033;44.660;37.758;2023-08-08T06:25:45;33.45;42.56
75985;DHT22;65033;44.660;37.758;2023-08-08T06:29:12;33.51;42.45
75985;DHT22;65033;44.660;37.758;2023-08-08T06:30:41;33.55;41.94
75985;DHT22;65033;44.660;37.758;2023-08-08T06:31:49;33.58;42.20
75985;DHT22;65033;44.660;37.758;2023-08-08T06:32:54;33.60;42.90
75985;DHT22;65033;44.660;37.758;2023-08-08T06:34:00;33.64;42.94
75985;DHT22;65033;44.660;37.758;2023-08-08T06:35:09;33.67;43.57
75985;DHT22;65033;44.660;37.758;2023-08-08T06:36:15;33.73;43.43
75985;DHT22;65033;44.660;37.758;2023-08-08T06:37:36;33.71;43.53
75985;DHT22;65033;44.660;37.758;2023-08-08T06:38:40;33.68;43.96
75985;DHT22;65033;44.660;37.758;2023-08-08T06:40:08;33.63;44.29
75985;DHT22;65033;44.660;37.758;2023-08-08T06:41:19;33.61;43.77
75985;DHT22;65033;44.660;37.758;2023-08-08T06:42:37;33.64;43.97
75985;DHT22;65033;44.660;37.758;2023-08-08T06:43:49;33.66;43.49
75985;DHT22;65033;44.660;37.758;2023-08-08T06:44:55;33.72;42.99
75985;DHT22;65033;44.660;37.758;2023-08-08T06:46:06;33.76;43.32